createdAt,value
2023-04-23T00:01:35.276Z,8.54
2023-04-23T00:04:49.850Z,8.58
2023-04-23T00:07:57.746Z,8.51
2023-04-23T00:10:49.740Z,8.59
2023-04-23T00:14:14.735Z,8.58
2023-04-23T00:17:27.844Z,8.60
2023-04-23T00:20:47.749Z,8.48
2023-04-23T00:24:00.078Z,8.43
2023-04-23T00:27:19.071Z,8.45
2023-04-23T00:30:25.484Z,8.46
2023-04-23T00:33:04.172Z,8.40
2023-04-23T00:35:40.596Z,8.37
2023-04-23T00:38:59.965Z,8.40
2023-04-23T00:41:42.721Z,8.38
2023-04-23T00:45:32.538Z,8.26
2023-04-23T00:49:07.573Z,8.19
2023-04-23T00:52:44.790Z,8.20
2023-04-23T00:56:11.875Z,8.25
2023-04-23T01:00:02.156Z,8.19
2023-04-23T01:03:53.535Z,8.20
2023-04-23T01:07:35.948Z,8.20
2023-04-23T01:11:15.045Z,8.19
2023-04-23T01:15:04.805Z,7.95
2023-04-23T01:18:55.076Z,7.91
2023-04-23T01:22:45.781Z,7.88
2023-04-23T01:26:27.189Z,7.90
2023-04-23T01:30:16.348Z,7.93
2023-04-23T01:33:59.893Z,7.89
2023-04-23T01:37:49.464Z,7.84
2023-04-23T01:41:38.543Z,7.91
2023-04-23T01:45:26.990Z,7.79
2023-04-23T01:49:19.649Z,7.79
2023-04-23T01:53:14.190Z,7.80
2023-04-23T01:57:04.583Z,7.67
2023-04-23T02:00:54.045Z,7.65
2023-04-23T02:04:44.390Z,7.61
2023-04-23T02:08:38.736Z,7.55
2023-04-23T02:12:28.174Z,7.59
2023-04-23T02:16:17.343Z,7.64
2023-04-23T02:20:09.641Z,7.66
2023-04-23T02:23:59.836Z,7.57
2023-04-23T02:27:39.942Z,7.51
2023-04-23T02:31:22.720Z,7.42
2023-04-23T02:35:12.330Z,7.28
2023-04-23T02:38:54.801Z,7.32
2023-04-23T02:42:22.054Z,7.31
2023-04-23T02:46:10.365Z,7.30
2023-04-23T02:49:59.082Z,7.28
2023-04-23T02:53:37.290Z,7.24
2023-04-23T02:57:27.190Z,7.21
2023-04-23T03:01:38.084Z,7.17
2023-04-23T03:05:31.420Z,7.12
2023-04-23T03:09:21.816Z,7.09
2023-04-23T03:13:18.128Z,7.07
2023-04-23T03:22:15.866Z,6.62
2023-04-23T03:26:10.268Z,6.64
2023-04-23T03:30:16.453Z,6.47
2023-04-23T03:34:10.991Z,6.43
2023-04-23T03:38:23.850Z,6.42
2023-04-23T03:42:36.527Z,6.41
2023-04-23T03:46:32.047Z,6.29
2023-04-23T03:50:50.427Z,6.13
2023-04-23T03:54:12.041Z,6.08
2023-04-23T03:57:30.394Z,6.17
2023-04-23T04:01:25.324Z,6.15
2023-04-23T04:04:37.367Z,6.03
2023-04-23T04:08:05.856Z,6.13
2023-04-23T04:11:45.197Z,6.25
2023-04-23T04:15:17.813Z,6.48
2023-04-23T04:18:29.729Z,6.67
2023-04-23T04:22:13.698Z,6.72
2023-04-23T04:25:40.043Z,6.79
2023-04-23T04:29:12.262Z,6.88
2023-04-23T04:32:17.161Z,7.00
2023-04-23T04:35:50.949Z,7.11
2023-04-23T04:39:07.612Z,7.25
2023-04-23T04:42:25.671Z,7.39
2023-04-23T04:45:54.679Z,7.56
2023-04-23T04:48:55.080Z,7.83
2023-04-23T04:51:53.185Z,8.06
2023-04-23T04:55:08.703Z,8.24
2023-04-23T04:58:34.126Z,8.37
2023-04-23T05:02:23.159Z,8.53
2023-04-23T05:05:42.416Z,8.70
2023-04-23T05:09:24.897Z,8.86
2023-04-23T05:12:53.996Z,9.02
2023-04-23T05:16:01.770Z,9.19
2023-04-23T05:19:49.678Z,9.36
2023-04-23T05:23:22.882Z,9.59
2023-04-23T05:26:45.765Z,9.81
2023-04-23T05:29:45.159Z,10.05
2023-04-23T05:33:46.440Z,10.29
2023-04-23T05:37:29.716Z,10.55
2023-04-23T05:41:05.944Z,10.82
2023-04-23T05:44:47.665Z,11.10
2023-04-23T05:48:26.665Z,11.39
2023-04-23T05:51:55.789Z,11.55
2023-04-23T05:55:45.001Z,11.81
2023-04-23T05:59:23.913Z,11.86
2023-04-23T06:02:58.644Z,11.87
2023-04-23T06:06:18.530Z,11.82
2023-04-23T06:09:35.075Z,11.90
2023-04-23T06:13:05.430Z,11.97
2023-04-23T06:16:54.588Z,11.91
2023-04-23T06:20:43.589Z,12.04
2023-04-23T06:24:32.929Z,12.16
2023-04-23T06:28:14.582Z,12.35
2023-04-23T06:32:02.849Z,12.54
2023-04-23T06:35:51.992Z,12.69
2023-04-23T06:39:42.278Z,12.92
2023-04-23T06:43:32.359Z,13.14
2023-04-23T06:47:06.576Z,13.25
2023-04-23T06:50:48.653Z,13.50
2023-04-23T06:54:37.554Z,13.86
2023-04-23T06:58:20.019Z,14.16
2023-04-23T07:01:41.652Z,14.46
2023-04-23T07:04:49.782Z,14.77
2023-04-23T07:08:13.733Z,16.32
2023-04-23T07:11:37.068Z,17.90
2023-04-23T07:14:57.316Z,18.93
2023-04-23T07:18:20.221Z,19.88
2023-04-23T07:21:45.902Z,20.52
2023-04-23T07:25:35.151Z,21.15
2023-04-23T07:29:45.417Z,21.40
2023-04-23T07:33:34.597Z,22.16
2023-04-23T07:37:23.299Z,22.09
2023-04-23T07:41:11.153Z,22.57
2023-04-23T07:45:00.226Z,22.99
2023-04-23T07:48:48.776Z,23.68
2023-04-23T07:52:38.306Z,23.97
2023-04-23T07:56:27.468Z,23.80
2023-04-23T08:00:16.456Z,23.64
2023-04-23T08:03:59.562Z,23.78
2023-04-23T08:07:48.960Z,23.70
2023-04-23T08:11:37.858Z,23.74
2023-04-23T08:15:26.804Z,23.79
2023-04-23T08:19:15.909Z,24.13
2023-04-23T08:23:05.063Z,24.52
2023-04-23T08:26:47.687Z,24.84
2023-04-23T08:30:36.646Z,24.90
2023-04-23T08:34:18.482Z,25.22
2023-04-23T08:38:07.701Z,25.38
2023-04-23T08:41:59.882Z,25.35
2023-04-23T08:45:41.785Z,25.65
2023-04-23T08:49:31.155Z,25.86
2023-04-23T08:53:23.149Z,26.11
2023-04-23T08:57:10.915Z,25.76
2023-04-23T09:00:58.868Z,25.80
2023-04-23T09:04:50.785Z,25.15
2023-04-23T09:07:50.744Z,25.40
2023-04-23T09:11:09.513Z,26.00
2023-04-23T09:14:50.954Z,26.36
2023-04-23T09:18:30.921Z,26.80
2023-04-23T09:22:12.603Z,26.83
2023-04-23T09:26:01.676Z,27.04
2023-04-23T09:29:56.328Z,27.11
2023-04-23T09:33:34.313Z,27.12
2023-04-23T09:37:23.272Z,27.30
2023-04-23T09:41:04.336Z,27.43
2023-04-23T09:44:59.060Z,27.84
2023-04-23T09:48:51.392Z,28.25
2023-04-23T09:52:33.104Z,28.33
2023-04-23T09:56:20.577Z,28.05
2023-04-23T10:00:17.983Z,27.90
2023-04-23T10:03:43.022Z,27.65
2023-04-23T10:07:35.761Z,27.89
2023-04-23T10:11:23.712Z,27.82
2023-04-23T10:15:12.648Z,28.00
2023-04-23T10:19:01.530Z,27.61
2023-04-23T10:22:50.678Z,27.19
2023-04-23T10:26:39.836Z,27.22
2023-04-23T10:30:34.781Z,26.65
2023-04-23T10:34:10.628Z,26.59
2023-04-23T10:37:52.284Z,26.85
2023-04-23T10:41:34.389Z,26.61
2023-04-23T10:49:08.820Z,26.57
2023-04-23T10:53:04.247Z,26.36
2023-04-23T10:56:26.982Z,26.36
2023-04-23T11:00:16.880Z,26.15
2023-04-23T11:04:08.093Z,26.41
2023-04-23T11:07:48.655Z,27.17
2023-04-23T11:11:37.740Z,27.65
2023-04-23T11:15:28.475Z,27.92
2023-04-23T11:19:17.356Z,27.69
2023-04-23T11:23:02.921Z,27.16
2023-04-23T11:26:24.089Z,27.17
2023-04-23T11:30:00.108Z,27.38
2023-04-23T11:33:12.763Z,27.32
2023-04-23T11:37:03.128Z,26.83
2023-04-23T11:40:46.041Z,26.79
2023-04-23T11:44:29.042Z,26.18
2023-04-23T11:48:07.223Z,26.18
2023-04-23T11:51:57.909Z,26.00
2023-04-23T11:55:47.583Z,25.60
2023-04-23T11:59:15.006Z,24.97
2023-04-23T12:03:07.579Z,24.78
2023-04-23T12:06:57.793Z,24.62
2023-04-23T12:10:28.252Z,24.44
2023-04-23T12:14:18.221Z,24.35
2023-04-23T12:18:10.330Z,23.89
2023-04-23T12:22:07.349Z,23.55
2023-04-23T12:25:42.795Z,23.41
2023-04-23T12:29:31.860Z,23.48
2023-04-23T12:33:13.481Z,23.49
2023-04-23T12:37:03.849Z,23.58
2023-04-23T12:39:53.120Z,23.79
2023-04-23T12:42:24.822Z,23.79
2023-04-23T12:45:57.508Z,23.94
2023-04-23T12:49:46.952Z,23.90
2023-04-23T12:53:37.391Z,23.86
2023-04-23T12:57:22.237Z,24.16
2023-04-23T13:01:11.988Z,24.09
2023-04-23T13:04:39.364Z,24.35
2023-04-23T13:08:13.027Z,24.31
2023-04-23T13:11:48.880Z,24.22
2023-04-23T13:14:45.669Z,24.38
2023-04-23T13:17:46.074Z,24.42
2023-04-23T13:21:18.777Z,24.15
2023-04-23T13:25:02.940Z,23.92
2023-04-23T13:28:53.839Z,23.93
2023-04-23T13:32:44.092Z,23.64
2023-04-23T13:36:34.593Z,23.27
2023-04-23T13:40:23.931Z,22.97
2023-04-23T13:44:15.374Z,22.61
2023-04-23T13:48:03.825Z,21.80
2023-04-23T13:51:47.294Z,20.95
2023-04-23T13:55:08.656Z,20.76
2023-04-23T13:59:11.613Z,20.46
2023-04-23T14:02:42.037Z,20.27
2023-04-23T14:06:31.723Z,20.33
2023-04-23T14:10:14.210Z,20.66
2023-04-23T14:14:03.073Z,20.97
2023-04-23T14:17:35.016Z,21.28
2023-04-23T14:21:01.322Z,21.25
2023-04-23T14:24:57.079Z,21.35
2023-04-23T14:28:27.951Z,21.35
2023-04-23T14:32:18.061Z,21.10
2023-04-23T14:36:02.886Z,21.02
2023-04-23T14:39:52.613Z,20.97
2023-04-23T14:43:36.583Z,20.87
2023-04-23T14:47:26.411Z,20.82
2023-04-23T14:51:15.666Z,20.88
2023-04-23T14:54:57.983Z,20.84
2023-04-23T14:58:47.030Z,20.78
2023-04-23T15:02:29.581Z,20.71
2023-04-23T15:06:09.907Z,20.60
2023-04-23T15:09:45.398Z,20.52
2023-04-23T15:13:38.307Z,20.44
2023-04-23T15:17:30.754Z,20.43
2023-04-23T15:20:25.666Z,20.40
2023-04-23T15:23:57.396Z,20.39
2023-04-23T15:27:39.932Z,20.26
2023-04-23T15:31:21.776Z,20.27
2023-04-23T15:35:10.733Z,20.27
2023-04-23T15:38:59.908Z,20.11
2023-04-23T15:42:49.407Z,19.96
2023-04-23T15:46:38.427Z,19.59
2023-04-23T15:50:27.709Z,19.11
2023-04-23T15:54:02.311Z,19.07
2023-04-23T15:57:34.105Z,18.98
2023-04-23T16:01:11.805Z,19.05
2023-04-23T16:04:52.604Z,19.05
2023-04-23T16:08:22.938Z,19.08
2023-04-23T16:12:07.276Z,19.04
2023-04-23T16:15:57.386Z,19.04
2023-04-23T16:19:48.440Z,19.08
2023-04-23T16:23:38.276Z,19.11
2023-04-23T16:27:16.546Z,19.20
2023-04-23T16:30:58.993Z,19.33
2023-04-23T16:34:48.296Z,19.25
2023-04-23T16:38:34.498Z,19.23
2023-04-23T16:42:07.253Z,19.24
2023-04-23T16:45:25.767Z,19.22
2023-04-23T16:49:13.517Z,19.05
2023-04-23T16:53:05.122Z,19.04
2023-04-23T16:56:54.423Z,18.96
2023-04-23T17:00:43.344Z,18.85
2023-04-23T17:04:30.887Z,18.74
2023-04-23T17:08:20.868Z,18.63
2023-04-23T17:12:02.324Z,18.51
2023-04-23T17:15:51.146Z,18.38
2023-04-23T17:19:13.022Z,18.30
2023-04-23T17:22:45.294Z,18.24
2023-04-23T17:26:37.173Z,18.14
2023-04-23T17:30:24.645Z,17.99
2023-04-23T17:34:14.662Z,17.81
2023-04-23T17:38:04.261Z,17.68
2023-04-23T17:41:24.909Z,17.64
2023-04-23T17:44:53.667Z,17.62
2023-04-23T17:48:30.442Z,17.65
2023-04-23T17:52:10.998Z,17.72
2023-04-23T17:55:43.123Z,17.74
2023-04-23T17:59:32.549Z,17.70
2023-04-23T18:03:14.767Z,17.60
2023-04-23T18:07:04.851Z,17.56
2023-04-23T18:10:27.683Z,17.59
2023-04-23T18:13:57.763Z,17.60
2023-04-23T18:17:23.090Z,17.59
2023-04-23T18:20:41.336Z,17.54
2023-04-23T18:24:04.717Z,17.40
2023-04-23T18:26:54.479Z,17.43
2023-04-23T18:30:32.804Z,17.42
2023-04-23T18:33:58.053Z,17.40
2023-04-23T18:37:39.417Z,17.39
2023-04-23T18:41:14.929Z,17.29
2023-04-23T18:44:56.438Z,17.10
2023-04-23T18:48:19.992Z,17.02
2023-04-23T18:51:31.012Z,16.95
2023-04-23T18:54:15.304Z,17.00
2023-04-23T18:57:33.460Z,17.09
2023-04-23T19:00:39.188Z,17.17
2023-04-23T19:04:07.859Z,17.12
2023-04-23T19:07:42.023Z,17.07
2023-04-23T19:11:32.954Z,16.96
2023-04-23T19:14:50.351Z,16.65
2023-04-23T19:18:06.250Z,16.48
2023-04-23T19:21:40.278Z,16.36
2023-04-23T19:24:54.027Z,16.29
2023-04-23T19:28:06.492Z,16.38
2023-04-23T19:30:49.289Z,16.44
2023-04-23T19:34:18.949Z,16.55
2023-04-23T19:37:38.122Z,16.56
2023-04-23T19:40:46.054Z,16.49
2023-04-23T19:44:16.634Z,16.35
2023-04-23T19:47:41.767Z,16.35
2023-04-23T19:51:13.418Z,16.39
2023-04-23T19:54:43.806Z,16.21
2023-04-23T19:58:24.069Z,16.19
2023-04-23T20:01:49.664Z,16.20
2023-04-23T20:05:11.769Z,16.24
2023-04-23T20:09:04.552Z,16.39
2023-04-23T20:12:45.394Z,16.39
2023-04-23T20:16:03.857Z,16.35
2023-04-23T20:19:54.609Z,16.30
2023-04-23T20:23:29.664Z,16.18
2023-04-23T20:27:09.098Z,16.09
2023-04-23T20:30:43.401Z,16.07
2023-04-23T20:33:57.525Z,16.00
2023-04-23T20:37:40.301Z,15.95
2023-04-23T20:40:58.927Z,15.86
2023-04-23T20:44:24.578Z,15.82
2023-04-23T20:47:50.080Z,15.79
2023-04-23T20:51:04.141Z,15.63
2023-04-23T20:54:05.882Z,15.52
2023-04-23T20:57:38.242Z,15.51
2023-04-23T21:01:08.053Z,15.46
2023-04-23T21:04:15.636Z,15.41
2023-04-23T21:07:41.237Z,15.34
2023-04-23T21:11:22.159Z,15.23
2023-04-23T21:14:37.348Z,15.07
2023-04-23T21:18:26.657Z,14.96
2023-04-23T21:22:16.149Z,14.84
2023-04-23T21:25:52.754Z,14.74
2023-04-23T21:29:26.332Z,14.63
2023-04-23T21:33:04.830Z,14.62
2023-04-23T21:36:45.400Z,14.66
2023-04-23T21:40:33.463Z,14.64
2023-04-23T21:44:23.398Z,14.50
2023-04-23T21:48:03.171Z,14.44
2023-04-23T21:51:44.658Z,14.31
2023-04-23T21:55:27.170Z,14.05
2023-04-23T21:59:15.448Z,13.90
2023-04-23T22:02:50.357Z,13.78
2023-04-23T22:06:39.637Z,13.74
2023-04-23T22:10:13.563Z,13.67
2023-04-23T22:13:56.088Z,13.66
2023-04-23T22:17:34.364Z,13.69
2023-04-23T22:21:13.444Z,13.62
2023-04-23T22:24:55.253Z,13.50
2023-04-23T22:28:29.330Z,13.47
2023-04-23T22:31:54.641Z,13.49
2023-04-23T22:35:30.083Z,13.30
2023-04-23T22:39:12.108Z,13.20
2023-04-23T22:42:52.140Z,13.27
2023-04-23T22:46:06.734Z,13.37
2023-04-23T22:49:48.352Z,13.42
2023-04-23T22:53:30.511Z,13.43
2023-04-23T22:57:13.259Z,13.28
2023-04-23T23:00:47.343Z,13.25
2023-04-23T23:04:31.374Z,13.36
2023-04-23T23:08:20.751Z,13.46
2023-04-23T23:12:02.734Z,13.49
2023-04-23T23:15:43.119Z,13.57
2023-04-23T23:19:31.330Z,13.55
2023-04-23T23:23:04.232Z,13.55
2023-04-23T23:26:16.629Z,13.54
2023-04-23T23:30:05.714Z,13.59
2023-04-23T23:33:44.525Z,13.65
2023-04-23T23:37:06.451Z,13.61
2023-04-23T23:40:55.616Z,13.54
2023-04-23T23:44:37.666Z,13.53
2023-04-23T23:48:12.631Z,13.55
2023-04-23T23:51:28.716Z,13.69
2023-04-23T23:55:10.598Z,13.84
2023-04-23T23:58:44.904Z,13.91
